sensor_id;sensor_type;location;lat;lon;timestamp;temperature;humidity
9448;DHT22;4762;48.128;11.376;2023-08-31T01:17:09;12.10;98.50
9448;DHT22;4762;48.128;11.376;2023-08-31T01:32:37;12.30;99.90
9448;DHT22;4762;48.128;11.376;2023-08-31T02:11:52;12.70;99.00
9448;DHT22;4762;48.128;11.376;2023-08-31T09:33:15;16.40;86.40
9448;DHT22;4762;48.128;11.376;2023-08-31T09:35:57;16.70;85.40
9448;DHT22;4762;48.128;11.376;2023-08-31T09:46:22;18.00;76.90
9448;DHT22;4762;48.128;11.376;2023-08-31T09:53:46;16.90;81.60
9448;DHT22;4762;48.128;11.376;2023-08-31T10:19:37;18.40;76.60
9448;DHT22;4762;48.128;11.376;2023-08-31T11:59:03;17.80;70.80
9448;DHT22;4762;48.128;11.376;2023-08-31T13:48:42;20.30;57.00
9448;DHT22;4762;48.128;11.376;2023-08-31T14:09:12;19.50;56.60
9448;DHT22;4762;48.128;11.376;2023-08-31T16:12:14;18.50;62.50
9448;DHT22;4762;48.128;11.376;2023-08-31T19:55:10;14.80;81.90
9448;DHT22;4762;48.128;11.376;2023-08-31T19:59:29;14.80;81.90
9448;DHT22;4762;48.128;11.376;2023-08-31T20:01:34;14.70;82.70
9448;DHT22;4762;48.128;11.376;2023-08-31T20:03:39;14.70;82.60
9448;DHT22;4762;48.128;11.376;2023-08-31T20:05:43;14.70;83.50
9448;DHT22;4762;48.128;11.376;2023-08-31T20:07:49;14.60;84.30
9448;DHT22;4762;48.128;11.376;2023-08-31T20:09:56;14.60;85.90
9448;DHT22;4762;48.128;11.376;2023-08-31T20:12:00;14.60;85.10
9448;DHT22;4762;48.128;11.376;2023-08-31T20:14:04;14.60;84.60
9448;DHT22;4762;48.128;11.376;2023-08-31T20:16:07;14.60;84.10
9448;DHT22;4762;48.128;11.376;2023-08-31T20:18:12;14.60;84.00
9448;DHT22;4762;48.128;11.376;2023-08-31T20:20:16;14.60;84.20
9448;DHT22;4762;48.128;11.376;2023-08-31T20:22:20;14.60;85.20
9448;DHT22;4762;48.128;11.376;2023-08-31T20:24:24;14.60;84.70
9448;DHT22;4762;48.128;11.376;2023-08-31T20:26:29;14.50;85.00
9448;DHT22;4762;48.128;11.376;2023-08-31T20:28:34;14.50;85.10
9448;DHT22;4762;48.128;11.376;2023-08-31T20:30:38;14.50;85.30
9448;DHT22;4762;48.128;11.376;2023-08-31T20:32:44;14.50;84.10
9448;DHT22;4762;48.128;11.376;2023-08-31T20:34:47;14.50;84.80
9448;DHT22;4762;48.128;11.376;2023-08-31T20:36:52;14.50;84.30
9448;DHT22;4762;48.128;11.376;2023-08-31T20:38:59;14.50;85.20
9448;DHT22;4762;48.128;11.376;2023-08-31T20:41:05;14.40;86.60
9448;DHT22;4762;48.128;11.376;2023-08-31T20:45:35;14.40;88.60
9448;DHT22;4762;48.128;11.376;2023-08-31T20:47:39;14.40;87.50
9448;DHT22;4762;48.128;11.376;2023-08-31T20:49:49;14.40;85.70
9448;DHT22;4762;48.128;11.376;2023-08-31T20:51:52;14.40;85.20
9448;DHT22;4762;48.128;11.376;2023-08-31T20:53:59;14.40;85.40
9448;DHT22;4762;48.128;11.376;2023-08-31T20:58:29;14.50;85.40
9448;DHT22;4762;48.128;11.376;2023-08-31T21:03:14;14.40;85.70
9448;DHT22;4762;48.128;11.376;2023-08-31T21:05:18;14.40;85.60
9448;DHT22;4762;48.128;11.376;2023-08-31T21:10:01;14.40;85.30
9448;DHT22;4762;48.128;11.376;2023-08-31T21:12:05;14.50;86.10
9448;DHT22;4762;48.128;11.376;2023-08-31T21:14:11;14.50;85.30
9448;DHT22;4762;48.128;11.376;2023-08-31T21:16:18;14.50;84.70
9448;DHT22;4762;48.128;11.376;2023-08-31T21:18:36;14.50;85.00
9448;DHT22;4762;48.128;11.376;2023-08-31T21:20:41;14.50;84.70
9448;DHT22;4762;48.128;11.376;2023-08-31T21:22:44;14.60;84.10
9448;DHT22;4762;48.128;11.376;2023-08-31T21:27:36;14.50;85.00
9448;DHT22;4762;48.128;11.376;2023-08-31T21:35:04;14.40;85.10
9448;DHT22;4762;48.128;11.376;2023-08-31T21:39:25;14.50;85.60
9448;DHT22;4762;48.128;11.376;2023-08-31T21:41:27;14.40;86.70
9448;DHT22;4762;48.128;11.376;2023-08-31T21:43:32;14.40;86.50
9448;DHT22;4762;48.128;11.376;2023-08-31T21:45:36;14.40;85.80
9448;DHT22;4762;48.128;11.376;2023-08-31T21:52:51;14.40;85.90
9448;DHT22;4762;48.128;11.376;2023-08-31T21:57:09;14.40;86.70
9448;DHT22;4762;48.128;11.376;2023-08-31T22:01:49;14.40;87.70
9448;DHT22;4762;48.128;11.376;2023-08-31T22:03:54;14.40;87.00
9448;DHT22;4762;48.128;11.376;2023-08-31T22:18:44;14.40;89.00
9448;DHT22;4762;48.128;11.376;2023-08-31T22:20:46;14.30;88.80
9448;DHT22;4762;48.128;11.376;2023-08-31T22:22:50;14.30;88.60
9448;DHT22;4762;48.128;11.376;2023-08-31T22:24:55;14.30;89.80
9448;DHT22;4762;48.128;11.376;2023-08-31T22:26:59;14.30;90.00
9448;DHT22;4762;48.128;11.376;2023-08-31T22:29:04;14.30;90.00
9448;DHT22;4762;48.128;11.376;2023-08-31T22:31:12;14.30;90.50
9448;DHT22;4762;48.128;11.376;2023-08-31T22:33:16;14.20;90.70
9448;DHT22;4762;48.128;11.376;2023-08-31T22:35:26;14.30;91.40
9448;DHT22;4762;48.128;11.376;2023-08-31T22:37:28;14.20;90.80
9448;DHT22;4762;48.128;11.376;2023-08-31T22:39:32;14.20;91.40
9448;DHT22;4762;48.128;11.376;2023-08-31T22:41:36;14.20;91.50
9448;DHT22;4762;48.128;11.376;2023-08-31T22:43:39;14.20;91.90
9448;DHT22;4762;48.128;11.376;2023-08-31T22:45:56;14.20;91.40
9448;DHT22;4762;48.128;11.376;2023-08-31T22:48:01;14.20;93.20
9448;DHT22;4762;48.128;11.376;2023-08-31T22:50:06;14.10;92.90
9448;DHT22;4762;48.128;11.376;2023-08-31T22:52:09;14.10;93.40
9448;DHT22;4762;48.128;11.376;2023-08-31T22:54:14;14.10;94.00
9448;DHT22;4762;48.128;11.376;2023-08-31T22:56:17;14.10;95.60
9448;DHT22;4762;48.128;11.376;2023-08-31T22:58:21;14.00;96.10
9448;DHT22;4762;48.128;11.376;2023-08-31T23:00:24;14.00;96.50
9448;DHT22;4762;48.128;11.376;2023-08-31T23:02:26;13.90;95.80
9448;DHT22;4762;48.128;11.376;2023-08-31T23:04:30;13.90;95.90
9448;DHT22;4762;48.128;11.376;2023-08-31T23:06:33;14.00;96.40
9448;DHT22;4762;48.128;11.376;2023-08-31T23:08:35;14.00;96.70
9448;DHT22;4762;48.128;11.376;2023-08-31T23:10:37;14.00;96.10
9448;DHT22;4762;48.128;11.376;2023-08-31T23:12:41;13.90;96.80
9448;DHT22;4762;48.128;11.376;2023-08-31T23:14:44;13.80;97.60
9448;DHT22;4762;48.128;11.376;2023-08-31T23:16:47;13.80;98.70
9448;DHT22;4762;48.128;11.376;2023-08-31T23:18:50;13.80;99.00
9448;DHT22;4762;48.128;11.376;2023-08-31T23:20:52;13.80;98.80
9448;DHT22;4762;48.128;11.376;2023-08-31T23:22:56;13.80;99.30
9448;DHT22;4762;48.128;11.376;2023-08-31T23:24:58;13.80;99.00
9448;DHT22;4762;48.128;11.376;2023-08-31T23:27:00;13.80;98.10
9448;DHT22;4762;48.128;11.376;2023-08-31T23:29:04;13.80;97.20
9448;DHT22;4762;48.128;11.376;2023-08-31T23:31:06;13.80;98.00
9448;DHT22;4762;48.128;11.376;2023-08-31T23:33:10;13.70;99.00
9448;DHT22;4762;48.128;11.376;2023-08-31T23:35:13;13.80;99.90
9448;DHT22;4762;48.128;11.376;2023-08-31T23:37:18;13.80;99.80
9448;DHT22;4762;48.128;11.376;2023-08-31T23:39:21;13.80;99.00
9448;DHT22;4762;48.128;11.376;2023-08-31T23:41:25;13.80;99.90
9448;DHT22;4762;48.128;11.376;2023-08-31T23:43:27;13.80;99.90
9448;DHT22;4762;48.128;11.376;2023-08-31T23:45:29;13.80;99.90
9448;DHT22;4762;48.128;11.376;2023-08-31T23:47:33;13.90;99.90
9448;DHT22;4762;48.128;11.376;2023-08-31T23:49:36;13.90;99.90
9448;DHT22;4762;48.128;11.376;2023-08-31T23:51:40;13.90;99.90
9448;DHT22;4762;48.128;11.376;2023-08-31T23:53:42;13.80;99.90
9448;DHT22;4762;48.128;11.376;2023-08-31T23:55:46;13.80;99.90
9448;DHT22;4762;48.128;11.376;2023-08-31T23:57:50;13.80;99.90
9448;DHT22;4762;48.128;11.376;2023-08-31T23:59:53;13.80;99.90
